createdAt,value
2017-08-30T00:04:18.621Z,7.10
2017-08-30T00:09:21.235Z,7.00
2017-08-30T00:14:23.832Z,6.60
2017-08-30T00:19:26.437Z,7.20
2017-08-30T00:24:41.002Z,6.90
2017-08-30T00:29:43.597Z,6.90
2017-08-30T00:34:46.213Z,6.70
2017-08-30T00:39:48.821Z,6.53
2017-08-30T00:44:51.413Z,7.10
2017-08-30T00:49:54.038Z,7.93
2017-08-30T00:54:56.642Z,9.03
2017-08-30T00:59:59.250Z,9.03
2017-08-30T01:05:01.855Z,8.67
2017-08-30T01:10:04.449Z,10.43
2017-08-30T01:15:07.053Z,8.00
2017-08-30T01:20:09.683Z,7.90
2017-08-30T01:25:12.306Z,8.60
2017-08-30T01:30:14.906Z,8.27
2017-08-30T01:35:17.513Z,8.40
2017-08-30T01:40:20.110Z,8.60
2017-08-30T01:45:22.733Z,8.23
2017-08-30T01:50:25.345Z,8.40
2017-08-30T01:55:27.945Z,8.87
2017-08-30T02:00:30.565Z,8.90
2017-08-30T02:05:33.159Z,9.20
2017-08-30T02:10:35.746Z,8.70
2017-08-30T02:15:38.336Z,8.80
2017-08-30T02:20:40.954Z,9.23
2017-08-30T02:25:43.578Z,8.27
2017-08-30T02:30:46.215Z,9.67
2017-08-30T02:35:48.856Z,7.50
2017-08-30T02:40:51.448Z,7.37
2017-08-30T02:45:54.048Z,8.80
2017-08-30T02:50:56.654Z,8.07
2017-08-30T02:55:59.277Z,8.87
2017-08-30T03:01:01.901Z,8.80
2017-08-30T03:06:04.514Z,9.83
2017-08-30T03:11:07.146Z,9.60
2017-08-30T03:16:09.746Z,9.63
2017-08-30T03:21:12.353Z,11.43
2017-08-30T03:26:14.959Z,10.00
2017-08-30T03:31:17.575Z,8.37
2017-08-30T03:36:20.190Z,10.57
2017-08-30T03:41:24.583Z,9.07
2017-08-30T03:46:27.202Z,10.50
2017-08-30T03:51:29.850Z,9.73
2017-08-30T03:56:32.449Z,10.93
2017-08-30T04:01:35.837Z,10.70
2017-08-30T04:06:38.438Z,8.60
2017-08-30T04:11:41.049Z,8.83
2017-08-30T04:16:43.662Z,11.20
2017-08-30T04:21:46.317Z,10.70
2017-08-30T04:26:48.918Z,12.27
2017-08-30T04:31:51.578Z,12.20
2017-08-30T04:36:54.165Z,12.43
2017-08-30T04:41:56.746Z,11.93
2017-08-30T04:46:59.361Z,10.80
2017-08-30T04:52:02.015Z,11.07
2017-08-30T04:57:04.625Z,12.93
2017-08-30T05:02:07.230Z,12.77
2017-08-30T05:07:09.845Z,18.83
2017-08-30T05:12:12.440Z,13.87
2017-08-30T05:17:15.066Z,14.67
2017-08-30T05:22:17.674Z,15.57
2017-08-30T05:27:20.287Z,13.47
2017-08-30T05:32:22.912Z,12.67
2017-08-30T05:37:25.533Z,12.70
2017-08-30T05:42:28.162Z,13.00
2017-08-30T05:47:30.793Z,11.60
2017-08-30T05:52:33.394Z,12.00
2017-08-30T05:57:36.051Z,12.43
2017-08-30T06:02:38.694Z,12.10
2017-08-30T06:07:41.315Z,11.80
2017-08-30T06:12:43.935Z,10.50
2017-08-30T06:17:46.551Z,10.17
2017-08-30T06:22:49.194Z,10.83
2017-08-30T06:27:51.822Z,11.33
2017-08-30T06:32:54.422Z,9.40
2017-08-30T06:37:57.045Z,9.60
2017-08-30T06:42:59.641Z,10.70
2017-08-30T06:48:02.254Z,10.60
2017-08-30T06:53:04.850Z,9.93
2017-08-30T06:58:07.462Z,11.20
2017-08-30T07:03:10.328Z,9.27
2017-08-30T07:08:12.962Z,8.87
2017-08-30T07:13:15.592Z,9.17
2017-08-30T07:18:18.213Z,9.10
2017-08-30T07:23:21.559Z,8.50
2017-08-30T07:28:24.173Z,7.80
2017-08-30T07:33:26.793Z,8.90
2017-08-30T07:38:31.282Z,7.60
2017-08-30T07:43:33.937Z,7.03
2017-08-30T07:48:36.529Z,7.43
2017-08-30T07:53:39.390Z,7.67
2017-08-30T07:58:47.542Z,7.50
2017-08-30T08:03:54.111Z,7.20
2017-08-30T08:08:56.725Z,6.67
2017-08-30T08:14:04.477Z,6.80
2017-08-30T08:19:07.127Z,6.20
2017-08-30T08:24:09.744Z,6.60
2017-08-30T08:29:12.349Z,6.73
2017-08-30T08:34:14.951Z,6.87
2017-08-30T08:39:17.570Z,7.00
2017-08-30T08:44:20.190Z,7.03
2017-08-30T08:49:22.821Z,7.20
2017-08-30T08:54:25.432Z,6.60
2017-08-30T08:59:28.032Z,6.33
2017-08-30T09:04:30.645Z,6.40
2017-08-30T09:09:33.274Z,6.30
2017-08-30T09:14:35.881Z,5.67
2017-08-30T09:19:38.500Z,5.50
2017-08-30T09:24:41.094Z,7.27
2017-08-30T09:29:43.724Z,6.77
2017-08-30T09:34:46.316Z,7.40
2017-08-30T09:39:48.910Z,8.13
2017-08-30T09:44:51.506Z,7.00
2017-08-30T09:49:54.130Z,7.77
2017-08-30T09:54:56.756Z,8.70
2017-08-30T09:59:59.380Z,8.37
2017-08-30T10:05:01.984Z,8.23
2017-08-30T10:10:04.636Z,7.90
2017-08-30T10:15:07.270Z,9.00
2017-08-30T10:20:09.864Z,8.87
2017-08-30T10:25:12.473Z,7.87
2017-08-30T10:30:15.108Z,8.30
2017-08-30T10:35:17.709Z,8.53
2017-08-30T10:40:20.352Z,7.87
2017-08-30T10:45:22.957Z,7.30
2017-08-30T10:50:25.567Z,8.57
2017-08-30T10:55:28.185Z,7.53
2017-08-30T11:00:30.925Z,7.73
2017-08-30T11:05:33.511Z,7.17
2017-08-30T11:10:36.105Z,7.43
2017-08-30T11:15:38.713Z,7.50
2017-08-30T11:20:41.311Z,7.57
2017-08-30T11:25:43.905Z,7.63
2017-08-30T11:30:46.557Z,7.73
2017-08-30T11:35:49.158Z,7.70
2017-08-30T11:40:51.754Z,8.87
2017-08-30T11:45:55.131Z,7.40
2017-08-30T11:50:57.729Z,7.70
2017-08-30T11:56:00.346Z,8.00
2017-08-30T12:01:02.955Z,8.10
2017-08-30T12:06:05.566Z,7.80
2017-08-30T12:16:13.192Z,7.73
2017-08-30T12:21:15.828Z,8.90
2017-08-30T12:26:18.503Z,7.23
2017-08-30T12:31:21.109Z,7.77
2017-08-30T12:36:23.737Z,7.47
2017-08-30T12:41:26.350Z,7.57
2017-08-30T12:46:28.967Z,7.10
2017-08-30T12:51:31.567Z,6.90
2017-08-30T12:56:34.162Z,7.13
2017-08-30T13:01:37.575Z,7.27
2017-08-30T13:06:40.189Z,7.27
2017-08-30T13:11:43.732Z,7.87
2017-08-30T13:16:46.841Z,7.20
2017-08-30T13:21:49.467Z,7.63
2017-08-30T13:26:52.079Z,7.97
2017-08-30T13:31:54.688Z,7.33
2017-08-30T13:36:57.305Z,7.70
2017-08-30T13:41:59.926Z,8.00
2017-08-30T13:47:02.542Z,7.97
2017-08-30T13:52:05.146Z,7.03
2017-08-30T13:57:07.764Z,6.67
2017-08-30T14:02:10.358Z,7.23
2017-08-30T14:07:12.959Z,7.77
2017-08-30T14:12:15.584Z,7.80
2017-08-30T14:17:18.190Z,6.43
2017-08-30T14:22:20.787Z,7.10
2017-08-30T14:27:23.386Z,8.30
2017-08-30T14:32:25.975Z,7.00
2017-08-30T14:37:28.587Z,7.03
2017-08-30T14:42:31.224Z,6.83
2017-08-30T14:47:33.824Z,7.77
2017-08-30T14:52:36.433Z,8.07
2017-08-30T14:57:39.059Z,7.47
2017-08-30T15:02:41.673Z,7.73
2017-08-30T15:07:44.324Z,7.30
2017-08-30T15:12:46.962Z,7.30
2017-08-30T15:17:49.602Z,7.43
2017-08-30T15:22:52.210Z,6.87
2017-08-30T15:27:55.666Z,6.63
2017-08-30T15:32:58.267Z,6.97
2017-08-30T15:38:02.714Z,5.93
2017-08-30T15:43:05.329Z,7.00
2017-08-30T15:48:07.966Z,6.77
2017-08-30T15:53:10.590Z,6.07
2017-08-30T15:58:13.229Z,6.67
2017-08-30T16:03:15.838Z,6.47
2017-08-30T16:08:18.436Z,6.23
2017-08-30T16:13:21.050Z,6.20
2017-08-30T16:18:23.677Z,6.03
2017-08-30T16:23:26.313Z,6.80
2017-08-30T16:28:29.009Z,6.97
2017-08-30T16:33:31.641Z,7.30
2017-08-30T16:38:34.270Z,6.53
2017-08-30T16:43:36.898Z,6.33
2017-08-30T16:48:39.530Z,7.63
2017-08-30T16:53:42.146Z,5.63
2017-08-30T16:58:44.733Z,6.50
2017-08-30T17:03:47.338Z,12.90
2017-08-30T17:08:49.954Z,7.07
2017-08-30T17:13:52.626Z,6.40
2017-08-30T17:18:55.269Z,6.93
2017-08-30T17:23:57.950Z,5.63
2017-08-30T17:29:00.573Z,5.83
2017-08-30T17:34:03.198Z,5.93
2017-08-30T17:39:05.868Z,7.10
2017-08-30T17:44:08.476Z,6.10
2017-08-30T17:49:11.193Z,6.23
2017-08-30T17:54:13.837Z,7.00
2017-08-30T17:59:16.437Z,6.57
2017-08-30T18:04:19.058Z,7.13
2017-08-30T18:09:21.676Z,6.70
2017-08-30T18:14:24.322Z,6.40
2017-08-30T18:19:26.941Z,6.67
2017-08-30T18:24:29.599Z,6.80
2017-08-30T18:29:32.227Z,6.30
2017-08-30T18:34:34.829Z,7.20
2017-08-30T18:39:37.447Z,6.93
2017-08-30T18:44:40.068Z,6.83
2017-08-30T18:49:42.650Z,7.97
2017-08-30T18:54:45.296Z,7.20
2017-08-30T18:59:48.183Z,7.50
2017-08-30T19:04:50.791Z,8.00
2017-08-30T19:09:53.425Z,7.73
2017-08-30T19:14:56.029Z,8.20
2017-08-30T19:19:58.657Z,7.80
2017-08-30T19:25:01.277Z,8.90
2017-08-30T19:30:03.891Z,8.40
2017-08-30T19:35:06.489Z,8.67
2017-08-30T19:40:09.095Z,8.07
2017-08-30T19:45:11.699Z,9.17
2017-08-30T19:50:14.310Z,7.83
2017-08-30T19:55:16.906Z,7.67
2017-08-30T20:00:19.527Z,7.40
2017-08-30T20:05:22.147Z,8.27
2017-08-30T20:10:24.782Z,8.33
2017-08-30T20:15:27.384Z,7.47
2017-08-30T20:20:30.020Z,8.80
2017-08-30T20:25:32.610Z,9.50
2017-08-30T20:30:35.201Z,10.10
2017-08-30T20:35:37.905Z,8.40
2017-08-30T20:40:40.542Z,8.20
2017-08-30T20:45:43.183Z,7.70
2017-08-30T20:50:45.813Z,8.63
2017-08-30T20:55:48.409Z,9.90
2017-08-30T21:00:51.041Z,10.40
2017-08-30T21:05:53.649Z,10.53
2017-08-30T21:10:56.257Z,9.37
2017-08-30T21:15:58.860Z,9.10
2017-08-30T21:21:01.482Z,8.03
2017-08-30T21:26:04.188Z,8.40
2017-08-30T21:31:06.797Z,9.17
2017-08-30T21:36:09.398Z,8.20
2017-08-30T21:41:11.995Z,8.77
2017-08-30T21:46:14.597Z,8.30
2017-08-30T21:51:17.209Z,9.00
2017-08-30T21:56:19.853Z,8.80
2017-08-30T22:01:22.458Z,8.50
2017-08-30T22:06:25.060Z,10.10
2017-08-30T22:11:27.663Z,9.13
2017-08-30T22:16:30.293Z,8.40
2017-08-30T22:21:32.906Z,8.90
2017-08-30T22:26:35.512Z,10.00
2017-08-30T22:31:38.105Z,10.63
2017-08-30T22:36:40.710Z,9.70
2017-08-30T22:41:43.297Z,9.30
2017-08-30T22:46:45.910Z,9.60
2017-08-30T22:51:48.510Z,10.27
2017-08-30T22:56:51.105Z,10.30
2017-08-30T23:01:53.830Z,9.80
2017-08-30T23:06:56.486Z,9.33
2017-08-30T23:11:59.099Z,8.93
2017-08-30T23:17:02.570Z,9.47
2017-08-30T23:22:05.191Z,9.67
2017-08-30T23:27:07.823Z,9.27
2017-08-30T23:32:10.426Z,9.53
2017-08-30T23:37:13.015Z,9.40
2017-08-30T23:42:15.601Z,8.70
2017-08-30T23:47:18.194Z,9.17
2017-08-30T23:52:20.825Z,9.10
2017-08-30T23:57:23.472Z,10.00
